Time;durP1;ratioP1;P1;durP2;ratioP2;P2;SDS_P1;SDS_P2;PMS_P1;PMS_P2;Temp;Humidity;BMP_temperature;BMP_pressure;BME280_temperature;BME280_humidity;BME280_pressure;Samples;Min_cycle;Max_cycle;Signal;HPM_P1;HPM_P2
2023/09/25 00:01:21;;;;;;;;;;;21.10;1.00;;;;;;4956738;29;19942;-65
2023/09/25 00:03:49;;;;;;;;;;;21.10;1.00;;;;;;4956049;28;19934;-65
2023/09/25 00:06:16;;;;;;;;;;;21.10;1.00;;;;;;4955495;29;20305;-64
2023/09/25 00:08:43;;;;;;;;;;;21.10;1.00;;;;;;4956550;29;19926;-65
2023/09/25 00:11:09;;;;;;;;;;;21.00;1.00;;;;;;4956588;29;19926;-65
2023/09/25 00:13:36;;;;;;;;;;;21.00;1.00;;;;;;4956375;29;19927;-64
2023/09/25 00:18:58;;;;;;;;;;;21.00;1.00;;;;;;4955762;23;20630;-65
2023/09/25 00:21:25;;;;;;;;;;;21.00;1.00;;;;;;4956330;29;19973;-65
2023/09/25 00:23:52;;;;;;;;;;;21.00;1.00;;;;;;4956249;29;19973;-65
2023/09/25 00:26:19;;;;;;;;;;;21.00;1.00;;;;;;4956268;29;20003;-65
2023/09/25 00:28:50;;;;;;;;;;;21.00;1.00;;;;;;4956376;29;19998;-64
2023/09/25 00:31:17;;;;;;;;;;;21.00;1.00;;;;;;4938937;29;19927;-65
2023/09/25 00:33:45;;;;;;;;;;;21.00;1.00;;;;;;4940483;29;19931;-65
2023/09/25 00:36:12;;;;;;;;;;;21.00;1.00;;;;;;4955700;29;19926;-64
2023/09/25 00:38:38;;;;;;;;;;;21.00;1.00;;;;;;4938697;29;19932;-64
2023/09/25 00:41:05;;;;;;;;;;;21.00;1.00;;;;;;4938764;29;19973;-64
2023/09/25 00:43:32;;;;;;;;;;;20.90;1.00;;;;;;4938687;29;19932;-64
2023/09/25 00:45:59;;;;;;;;;;;21.00;1.00;;;;;;4938345;29;19927;-64
2023/09/25 00:48:26;;;;;;;;;;;20.90;1.00;;;;;;4938587;29;19973;-65
2023/09/25 00:50:58;;;;;;;;;;;21.00;1.00;;;;;;4938796;29;20393;-65
2023/09/25 00:53:26;;;;;;;;;;;21.00;1.00;;;;;;4955784;29;20033;-65
2023/09/25 00:55:53;;;;;;;;;;;20.90;1.00;;;;;;4938094;29;19973;-64
2023/09/25 00:58:20;;;;;;;;;;;20.90;1.00;;;;;;4938645;29;19926;-64
2023/09/25 01:00:47;;;;;;;;;;;20.90;1.00;;;;;;4955633;29;19926;-65
2023/09/25 01:03:14;;;;;;;;;;;20.90;1.00;;;;;;4938159;29;19933;-65
2023/09/25 01:05:41;;;;;;;;;;;20.90;1.00;;;;;;4938207;29;19965;-64
2023/09/25 01:08:10;;;;;;;;;;;20.90;1.00;;;;;;4955568;29;19927;-65
2023/09/25 01:10:38;;;;;;;;;;;20.90;1.00;;;;;;4925869;29;19927;-65
2023/09/25 01:13:05;;;;;;;;;;;20.90;1.00;;;;;;4919157;29;19945;-65
2023/09/25 01:15:32;;;;;;;;;;;20.90;1.00;;;;;;4923152;29;20353;-65
2023/09/25 01:17:59;;;;;;;;;;;20.90;1.00;;;;;;4935930;29;19933;-65
2023/09/25 01:20:26;;;;;;;;;;;20.90;1.00;;;;;;4933661;29;20453;-65
2023/09/25 01:22:53;;;;;;;;;;;20.90;1.00;;;;;;4955149;29;19926;-64
2023/09/25 01:25:22;;;;;;;;;;;20.90;1.00;;;;;;4937892;29;19930;-64
2023/09/25 01:27:49;;;;;;;;;;;20.90;1.00;;;;;;4937595;29;19939;-65
2023/09/25 01:30:16;;;;;;;;;;;20.90;1.00;;;;;;4937829;29;19950;-64
2023/09/25 01:32:44;;;;;;;;;;;20.90;1.00;;;;;;4937797;29;20013;-64
2023/09/25 01:35:17;;;;;;;;;;;20.90;1.00;;;;;;4937810;29;19932;-64
2023/09/25 01:37:45;;;;;;;;;;;20.80;1.00;;;;;;4937403;29;20467;-64
2023/09/25 01:40:18;;;;;;;;;;;20.80;1.00;;;;;;4937694;29;20001;-65
2023/09/25 01:42:45;;;;;;;;;;;20.80;1.00;;;;;;4955117;29;19937;-65
2023/09/25 01:45:14;;;;;;;;;;;20.80;1.00;;;;;;4954918;29;20340;-64
2023/09/25 01:47:42;;;;;;;;;;;20.80;1.00;;;;;;4954247;29;19975;-64
2023/09/25 01:53:04;;;;;;;;;;;20.80;1.00;;;;;;5423660;23;20450;-64
2023/09/25 01:55:36;;;;;;;;;;;20.80;1.00;;;;;;4936712;29;21479;-64
2023/09/25 01:58:04;;;;;;;;;;;20.80;1.00;;;;;;4937148;29;20345;-64
2023/09/25 02:00:30;;;;;;;;;;;20.80;1.00;;;;;;4937444;29;20460;-64
2023/09/25 02:02:57;;;;;;;;;;;20.80;1.00;;;;;;4937363;29;20329;-64
2023/09/25 02:05:24;;;;;;;;;;;20.70;1.00;;;;;;4937077;29;20415;-64
2023/09/25 02:07:52;;;;;;;;;;;20.80;1.00;;;;;;4936895;29;19926;-64
2023/09/25 02:10:19;;;;;;;;;;;20.80;1.00;;;;;;4937302;29;19981;-64
2023/09/25 02:12:45;;;;;;;;;;;20.80;1.00;;;;;;4937052;29;19965;-64
2023/09/25 02:15:12;;;;;;;;;;;20.70;1.00;;;;;;4937279;29;19930;-64
2023/09/25 02:17:40;;;;;;;;;;;20.70;1.00;;;;;;4954146;29;20377;-64
2023/09/25 02:20:28;;;;;;;;;;;20.70;1.00;;;;;;4937066;29;19974;-64
2023/09/25 02:25:42;;;;;;;;;;;20.70;1.00;;;;;;5121046;23;19933;-65
2023/09/25 02:28:09;;;;;;;;;;;20.70;1.00;;;;;;4932948;29;20401;-65
2023/09/25 02:30:36;;;;;;;;;;;20.70;1.00;;;;;;4925008;29;19927;-65
2023/09/25 02:33:03;;;;;;;;;;;20.70;1.00;;;;;;4936817;29;20004;-65
2023/09/25 02:35:31;;;;;;;;;;;20.70;1.00;;;;;;4954025;28;19969;-65
2023/09/25 02:37:59;;;;;;;;;;;20.70;1.00;;;;;;4953908;29;20249;-65
2023/09/25 02:40:26;;;;;;;;;;;20.70;1.00;;;;;;4954178;29;19927;-64
2023/09/25 02:42:53;;;;;;;;;;;20.70;1.00;;;;;;4936999;29;19926;-65
2023/09/25 02:45:20;;;;;;;;;;;20.70;1.00;;;;;;4954204;28;20412;-65
2023/09/25 02:47:47;;;;;;;;;;;20.60;1.00;;;;;;4953711;29;19930;-65
2023/09/25 02:50:14;;;;;;;;;;;20.70;1.00;;;;;;4954603;29;19928;-65
2023/09/25 02:52:43;;;;;;;;;;;20.60;1.00;;;;;;4937082;29;20381;-65
2023/09/25 02:55:10;;;;;;;;;;;20.60;1.00;;;;;;4953885;29;20025;-64
2023/09/25 02:58:01;;;;;;;;;;;20.60;1.00;;;;;;5128439;23;20361;-65
2023/09/25 03:00:29;;;;;;;;;;;20.60;1.00;;;;;;4954024;29;19927;-65
2023/09/25 03:02:57;;;;;;;;;;;20.60;1.00;;;;;;4954071;29;19927;-65
2023/09/25 03:05:24;;;;;;;;;;;20.60;1.00;;;;;;4953771;29;19993;-65
2023/09/25 03:07:51;;;;;;;;;;;20.60;1.00;;;;;;4936459;29;19980;-65
2023/09/25 03:10:17;;;;;;;;;;;20.60;1.00;;;;;;4936811;29;19927;-65
2023/09/25 03:12:44;;;;;;;;;;;20.60;1.00;;;;;;4953944;29;19961;-65
2023/09/25 03:15:11;;;;;;;;;;;20.60;1.00;;;;;;4953907;29;19931;-65
2023/09/25 03:17:38;;;;;;;;;;;20.60;1.00;;;;;;4953630;29;19982;-65
2023/09/25 03:20:14;;;;;;;;;;;20.60;1.00;;;;;;4936450;29;19976;-65
2023/09/25 03:22:42;;;;;;;;;;;20.60;1.00;;;;;;4953798;29;20300;-65
2023/09/25 03:25:10;;;;;;;;;;;20.60;1.00;;;;;;4954004;29;20288;-65
2023/09/25 03:27:37;;;;;;;;;;;20.60;1.00;;;;;;4936425;29;20017;-66
2023/09/25 03:30:05;;;;;;;;;;;20.60;1.00;;;;;;5254832;23;19982;-65
2023/09/25 03:32:32;;;;;;;;;;;20.60;1.00;;;;;;4955630;28;19930;-66
2023/09/25 03:35:01;;;;;;;;;;;20.50;1.00;;;;;;4972599;28;19930;-65
2023/09/25 03:37:28;;;;;;;;;;;20.60;1.00;;;;;;4937765;29;20022;-65
2023/09/25 03:39:54;;;;;;;;;;;20.50;1.00;;;;;;4955739;28;19934;-65
2023/09/25 03:42:21;;;;;;;;;;;20.50;1.00;;;;;;4939979;29;20300;-65
2023/09/25 03:44:50;;;;;;;;;;;20.50;1.00;;;;;;4956964;29;19941;-65
2023/09/25 03:47:17;;;;;;;;;;;20.50;1.00;;;;;;4939366;29;19952;-66
2023/09/25 03:49:44;;;;;;;;;;;20.50;1.00;;;;;;4939864;29;19930;-65
2023/09/25 03:52:11;;;;;;;;;;;20.50;1.00;;;;;;4939632;29;20319;-63
2023/09/25 03:54:37;;;;;;;;;;;20.50;1.00;;;;;;4956774;29;19926;-65
2023/09/25 03:57:04;;;;;;;;;;;20.50;1.00;;;;;;4956752;28;19926;-64
2023/09/25 03:59:31;;;;;;;;;;;20.50;1.00;;;;;;4956716;29;19934;-66
2023/09/25 04:01:57;;;;;;;;;;;20.50;1.00;;;;;;5391733;23;19933;-64
2023/09/25 04:04:24;;;;;;;;;;;20.50;1.00;;;;;;4956044;29;19926;-64
2023/09/25 04:06:51;;;;;;;;;;;20.50;1.00;;;;;;4956452;29;19931;-62
2023/09/25 04:09:18;;;;;;;;;;;20.50;1.00;;;;;;4955376;29;19934;-64
2023/09/25 04:11:45;;;;;;;;;;;20.50;1.00;;;;;;4949488;29;19927;-64
2023/09/25 04:14:12;;;;;;;;;;;20.50;1.00;;;;;;4953924;29;20304;-64
2023/09/25 04:16:39;;;;;;;;;;;20.50;1.00;;;;;;4951108;29;20032;-65
2023/09/25 04:19:06;;;;;;;;;;;20.50;1.00;;;;;;4955230;29;19933;-65
2023/09/25 04:21:33;;;;;;;;;;;20.50;1.00;;;;;;4950372;29;20404;-64
2023/09/25 04:24:03;;;;;;;;;;;20.50;1.00;;;;;;4938950;29;19966;-65
2023/09/25 04:26:30;;;;;;;;;;;20.50;1.00;;;;;;4950765;29;19926;-65
2023/09/25 04:28:57;;;;;;;;;;;20.40;1.00;;;;;;4948570;29;19934;-65
2023/09/25 04:31:23;;;;;;;;;;;20.40;1.00;;;;;;4956230;29;20424;-65
2023/09/25 04:33:52;;;;;;;;;;;20.40;1.00;;;;;;5021370;23;19926;-64
2023/09/25 04:36:19;;;;;;;;;;;20.40;1.00;;;;;;4957224;28;19927;-65
2023/09/25 04:38:45;;;;;;;;;;;20.40;1.00;;;;;;4956059;29;19926;-65
2023/09/25 04:41:12;;;;;;;;;;;20.40;1.00;;;;;;4955943;29;19937;-65
2023/09/25 04:43:39;;;;;;;;;;;20.40;1.00;;;;;;4955896;29;20424;-65
2023/09/25 04:46:06;;;;;;;;;;;20.40;1.00;;;;;;4955862;28;19928;-65
2023/09/25 04:48:36;;;;;;;;;;;20.40;1.00;;;;;;4955748;29;19997;-65
2023/09/25 04:51:03;;;;;;;;;;;20.40;1.00;;;;;;4954979;28;19933;-65
2023/09/25 04:53:29;;;;;;;;;;;20.40;1.00;;;;;;4955763;29;20304;-65
2023/09/25 04:55:56;;;;;;;;;;;20.30;1.00;;;;;;4955499;28;20010;-65
2023/09/25 04:58:23;;;;;;;;;;;20.30;1.00;;;;;;4955701;29;19927;-65
2023/09/25 05:00:50;;;;;;;;;;;20.30;1.00;;;;;;4955626;29;20289;-65
2023/09/25 05:03:17;;;;;;;;;;;20.30;1.00;;;;;;4955473;29;19950;-65
2023/09/25 05:05:44;;;;;;;;;;;20.30;1.00;;;;;;5077164;23;19930;-66
2023/09/25 05:08:11;;;;;;;;;;;20.30;1.00;;;;;;4955568;29;20028;-65
2023/09/25 05:10:38;;;;;;;;;;;20.30;1.00;;;;;;4955613;29;20428;-65
2023/09/25 05:13:04;;;;;;;;;;;20.30;1.00;;;;;;4955312;29;20348;-65
2023/09/25 05:15:31;;;;;;;;;;;20.30;1.00;;;;;;4955426;29;20321;-66
2023/09/25 05:17:58;;;;;;;;;;;20.30;1.00;;;;;;4954593;29;19927;-66
2023/09/25 05:20:26;;;;;;;;;;;20.30;1.00;;;;;;4954388;29;20303;-66
2023/09/25 05:22:54;;;;;;;;;;;20.30;1.00;;;;;;4954047;29;19926;-66
2023/09/25 05:25:22;;;;;;;;;;;20.30;1.00;;;;;;4955198;29;19926;-65
2023/09/25 05:27:49;;;;;;;;;;;20.30;1.00;;;;;;4955138;29;19926;-66
2023/09/25 05:30:20;;;;;;;;;;;20.30;1.00;;;;;;4955067;29;19927;-66
2023/09/25 05:32:49;;;;;;;;;;;20.30;1.00;;;;;;4954981;29;20018;-65
2023/09/25 05:35:17;;;;;;;;;;;20.30;1.00;;;;;;5000980;23;20344;-66
2023/09/25 05:37:45;;;;;;;;;;;20.20;1.00;;;;;;4974026;28;19926;-66
2023/09/25 05:40:13;;;;;;;;;;;20.30;1.00;;;;;;4972086;28;20016;-66
2023/09/25 05:42:40;;;;;;;;;;;20.20;1.00;;;;;;4973944;28;19930;-66
2023/09/25 05:45:07;;;;;;;;;;;20.20;1.00;;;;;;4973434;28;19933;-65
2023/09/25 05:47:34;;;;;;;;;;;20.20;1.00;;;;;;4973619;28;19926;-66
2023/09/25 05:50:02;;;;;;;;;;;20.20;1.00;;;;;;4974016;28;19930;-66
2023/09/25 05:52:29;;;;;;;;;;;20.20;1.00;;;;;;4974042;28;20384;-66
2023/09/25 05:54:56;;;;;;;;;;;20.20;1.00;;;;;;4973863;28;20391;-66
2023/09/25 05:57:22;;;;;;;;;;;20.20;1.00;;;;;;4973600;28;19966;-66
2023/09/25 05:59:49;;;;;;;;;;;20.20;1.00;;;;;;4973745;28;19930;-66
2023/09/25 06:02:16;;;;;;;;;;;20.20;1.00;;;;;;4973849;28;20355;-66
2023/09/25 06:04:43;;;;;;;;;;;20.20;1.00;;;;;;4973652;28;19956;-66
2023/09/25 06:07:09;;;;;;;;;;;20.20;1.00;;;;;;5645003;23;20342;-65
2023/09/25 06:09:36;;;;;;;;;;;20.20;1.00;;;;;;4942102;29;20409;-66
2023/09/25 06:12:03;;;;;;;;;;;20.20;1.00;;;;;;4935412;29;19973;-66
2023/09/25 06:14:31;;;;;;;;;;;20.20;1.00;;;;;;4927666;29;19982;-66
2023/09/25 06:17:01;;;;;;;;;;;20.20;1.00;;;;;;4934819;29;19933;-65
2023/09/25 06:19:30;;;;;;;;;;;20.20;1.00;;;;;;4935123;29;19934;-66
2023/09/25 06:21:56;;;;;;;;;;;20.20;1.00;;;;;;4935098;29;20025;-66
2023/09/25 06:24:23;;;;;;;;;;;20.20;1.00;;;;;;4935059;29;19930;-66
2023/09/25 06:26:50;;;;;;;;;;;20.10;1.00;;;;;;4935111;29;19962;-66
2023/09/25 06:29:17;;;;;;;;;;;20.10;1.00;;;;;;4935174;29;19927;-66
2023/09/25 06:31:43;;;;;;;;;;;20.10;1.00;;;;;;4935064;29;20334;-66
2023/09/25 06:34:26;;;;;;;;;;;20.10;1.00;;;;;;4934850;29;19974;-66
2023/09/25 06:36:54;;;;;;;;;;;20.10;1.00;;;;;;4934600;29;20361;-66
2023/09/25 06:39:21;;;;;;;;;;;20.10;1.00;;;;;;5202961;23;19930;-65
2023/09/25 06:41:48;;;;;;;;;;;20.10;1.00;;;;;;4980338;28;20269;-65
2023/09/25 06:44:19;;;;;;;;;;;20.10;1.00;;;;;;4962404;28;19932;-65
2023/09/25 06:46:46;;;;;;;;;;;20.10;1.00;;;;;;4941329;28;20025;-65
2023/09/25 06:49:13;;;;;;;;;;;20.10;1.00;;;;;;4934894;29;20373;-65
2023/09/25 06:51:40;;;;;;;;;;;20.10;1.00;;;;;;4934808;29;20300;-64
2023/09/25 06:54:08;;;;;;;;;;;20.10;1.00;;;;;;4950666;29;20448;-65
2023/09/25 06:56:35;;;;;;;;;;;20.10;1.00;;;;;;4965401;28;20242;-65
2023/09/25 06:59:02;;;;;;;;;;;20.10;1.00;;;;;;4973198;28;20380;-65
2023/09/25 07:01:30;;;;;;;;;;;20.10;1.00;;;;;;4973351;28;19930;-65
2023/09/25 07:03:57;;;;;;;;;;;20.10;1.00;;;;;;4973145;28;19926;-65
2023/09/25 07:06:24;;;;;;;;;;;20.10;1.00;;;;;;4972787;28;19926;-65
2023/09/25 07:08:51;;;;;;;;;;;20.10;1.00;;;;;;4973183;28;20011;-65
2023/09/25 07:14:06;;;;;;;;;;;20.10;1.00;;;;;;4914440;29;19982;-65
2023/09/25 07:16:35;;;;;;;;;;;20.10;1.00;;;;;;4915758;29;19927;-65
2023/09/25 07:19:01;;;;;;;;;;;20.10;1.00;;;;;;4900353;29;19932;-65
2023/09/25 07:21:28;;;;;;;;;;;20.10;1.00;;;;;;4900308;29;19927;-65
2023/09/25 07:23:55;;;;;;;;;;;20.10;1.00;;;;;;4900453;29;20014;-65
2023/09/25 07:26:22;;;;;;;;;;;20.10;1.00;;;;;;4899955;29;19936;-65
2023/09/25 07:28:49;;;;;;;;;;;20.10;1.00;;;;;;4900364;29;20006;-65
2023/09/25 07:31:21;;;;;;;;;;;20.10;1.00;;;;;;4900115;29;19927;-65
2023/09/25 07:33:48;;;;;;;;;;;20.10;1.00;;;;;;4900758;29;20026;-65
2023/09/25 07:36:19;;;;;;;;;;;20.10;1.00;;;;;;4899740;29;20018;-65
2023/09/25 07:38:46;;;;;;;;;;;20.10;1.00;;;;;;4900101;29;19938;-65
2023/09/25 07:41:14;;;;;;;;;;;20.10;1.00;;;;;;4899977;29;19927;-65
2023/09/25 07:43:41;;;;;;;;;;;20.10;1.00;;;;;;4900355;29;19985;-65
2023/09/25 07:46:25;;;;;;;;;;;20.10;1.00;;;;;;4899596;29;20295;-65
2023/09/25 07:48:53;;;;;;;;;;;20.10;1.00;;;;;;4900040;29;20295;-65
2023/09/25 07:51:22;;;;;;;;;;;20.10;1.00;;;;;;4899967;29;19976;-65
2023/09/25 07:53:58;;;;;;;;;;;20.20;1.00;;;;;;4900421;29;19932;-65
2023/09/25 07:56:25;;;;;;;;;;;20.10;1.00;;;;;;4899354;29;19927;-65
2023/09/25 07:58:55;;;;;;;;;;;20.20;1.00;;;;;;4899875;29;20018;-65
2023/09/25 08:01:22;;;;;;;;;;;20.20;1.00;;;;;;4899726;29;20147;-65
2023/09/25 08:03:51;;;;;;;;;;;20.20;1.00;;;;;;4899828;29;20346;-65
2023/09/25 08:06:19;;;;;;;;;;;20.20;1.00;;;;;;4899356;29;20034;-65
2023/09/25 08:08:46;;;;;;;;;;;20.20;1.00;;;;;;4899593;29;20297;-65
2023/09/25 08:11:15;;;;;;;;;;;20.20;1.00;;;;;;4899414;29;19934;-65
2023/09/25 08:13:41;;;;;;;;;;;20.20;1.00;;;;;;4918227;29;20218;-65
2023/09/25 08:16:08;;;;;;;;;;;20.20;1.00;;;;;;4918989;29;19927;-65
2023/09/25 08:18:35;;;;;;;;;;;20.20;1.00;;;;;;4915495;29;20034;-65
2023/09/25 08:21:04;;;;;;;;;;;20.20;1.00;;;;;;4913199;29;19931;-65
2023/09/25 08:23:32;;;;;;;;;;;20.20;1.00;;;;;;4918463;29;19931;-65
2023/09/25 08:25:58;;;;;;;;;;;20.20;1.00;;;;;;4916786;29;20018;-65
2023/09/25 08:28:25;;;;;;;;;;;20.20;1.00;;;;;;4918077;29;19928;-65
2023/09/25 08:30:52;;;;;;;;;;;20.20;1.00;;;;;;4917958;29;20397;-65
2023/09/25 08:33:19;;;;;;;;;;;20.20;1.00;;;;;;4917989;29;19931;-65
2023/09/25 08:35:45;;;;;;;;;;;20.20;1.00;;;;;;4917572;29;19935;-65
2023/09/25 08:38:12;;;;;;;;;;;20.20;1.00;;;;;;4917956;29;20081;-65
2023/09/25 08:40:43;;;;;;;;;;;20.20;1.00;;;;;;4917768;29;19927;-65
2023/09/25 08:43:10;;;;;;;;;;;20.20;1.00;;;;;;4918014;29;20353;-65
2023/09/25 08:48:35;;;;;;;;;;;20.20;1.00;;;;;;5277661;23;19926;-65
2023/09/25 08:51:02;;;;;;;;;;;20.20;1.00;;;;;;4981107;28;19926;-65
2023/09/25 08:53:29;;;;;;;;;;;20.20;1.00;;;;;;4992696;28;20290;-65
2023/09/25 08:55:56;;;;;;;;;;;20.20;1.00;;;;;;4988496;28;19933;-64
2023/09/25 08:58:24;;;;;;;;;;;20.20;1.00;;;;;;4974794;28;19932;-65
2023/09/25 09:00:53;;;;;;;;;;;20.20;1.00;;;;;;4974919;28;19930;-65
2023/09/25 09:03:20;;;;;;;;;;;20.20;1.00;;;;;;4974863;28;19950;-65
2023/09/25 09:05:47;;;;;;;;;;;20.20;1.00;;;;;;4974328;28;20288;-65
2023/09/25 09:08:16;;;;;;;;;;;20.20;1.00;;;;;;4974775;28;19926;-65
2023/09/25 09:10:43;;;;;;;;;;;20.20;1.00;;;;;;4957497;28;19926;-65
2023/09/25 09:13:10;;;;;;;;;;;20.20;1.00;;;;;;4974674;28;19933;-65
2023/09/25 09:15:39;;;;;;;;;;;20.20;1.00;;;;;;4971887;28;20273;-65
2023/09/25 09:21:01;;;;;;;;;;;20.20;1.00;;;;;;4981479;23;19942;-65
2023/09/25 09:23:41;;;;;;;;;;;20.20;1.00;;;;;;4972029;28;19933;-64
2023/09/25 09:26:09;;;;;;;;;;;20.20;1.00;;;;;;4966866;28;19926;-65
2023/09/25 09:28:36;;;;;;;;;;;20.20;1.00;;;;;;4954981;29;19926;-64
2023/09/25 09:31:07;;;;;;;;;;;20.20;1.00;;;;;;4955038;29;19933;-65
2023/09/25 09:33:37;;;;;;;;;;;20.20;1.00;;;;;;4954983;29;20454;-65
2023/09/25 09:36:04;;;;;;;;;;;20.20;1.00;;;;;;4954365;28;19933;-65
2023/09/25 09:38:33;;;;;;;;;;;20.20;1.00;;;;;;4954454;29;19931;-65
2023/09/25 09:41:06;;;;;;;;;;;20.30;1.00;;;;;;4954948;29;20396;-65
2023/09/25 09:43:33;;;;;;;;;;;20.30;1.00;;;;;;4954845;29;19927;-65
2023/09/25 09:46:00;;;;;;;;;;;20.20;1.00;;;;;;4954396;28;19927;-65
2023/09/25 09:48:31;;;;;;;;;;;20.20;1.00;;;;;;4954892;29;19989;-65
2023/09/25 09:51:01;;;;;;;;;;;20.20;1.00;;;;;;5203970;23;19933;31
2023/09/25 09:53:28;;;;;;;;;;;20.20;1.00;;;;;;4932903;29;20010;-65
2023/09/25 09:55:56;;;;;;;;;;;20.20;1.00;;;;;;4939328;29;19926;-65
2023/09/25 09:58:26;;;;;;;;;;;20.20;1.00;;;;;;4954886;28;19954;-65
2023/09/25 10:00:56;;;;;;;;;;;20.20;1.00;;;;;;4954596;28;20288;-65
2023/09/25 10:03:24;;;;;;;;;;;20.20;1.00;;;;;;4954734;28;19957;-65
2023/09/25 10:05:51;;;;;;;;;;;20.20;1.00;;;;;;4938864;29;19961;-65
2023/09/25 10:08:18;;;;;;;;;;;20.20;1.00;;;;;;4954432;29;19926;-65
2023/09/25 10:10:48;;;;;;;;;;;20.20;1.00;;;;;;4954531;29;19934;-65
2023/09/25 10:13:21;;;;;;;;;;;20.20;1.00;;;;;;4954811;28;19973;-65
2023/09/25 10:15:50;;;;;;;;;;;20.20;1.00;;;;;;4935082;29;20013;-65
2023/09/25 10:18:17;;;;;;;;;;;20.20;1.00;;;;;;4935741;29;19927;-65
2023/09/25 10:20:45;;;;;;;;;;;20.20;1.00;;;;;;4938012;29;19927;-65
2023/09/25 10:26:02;;;;;;;;;;;20.20;1.00;;;;;;4948960;28;20377;-65
2023/09/25 10:28:30;;;;;;;;;;;20.30;1.00;;;;;;4935165;29;19927;-65
2023/09/25 10:30:58;;;;;;;;;;;20.20;1.00;;;;;;4935076;29;19939;-65
2023/09/25 10:33:47;;;;;;;;;;;20.20;1.00;;;;;;4931527;29;19928;-65
2023/09/25 10:36:15;;;;;;;;;;;20.20;1.00;;;;;;4932392;29;19927;-65
2023/09/25 10:38:42;;;;;;;;;;;20.30;1.00;;;;;;4934959;29;20199;-65
2023/09/25 10:41:09;;;;;;;;;;;20.30;1.00;;;;;;4934853;29;19927;-65
2023/09/25 10:43:36;;;;;;;;;;;20.30;1.00;;;;;;4942652;29;19969;-65
2023/09/25 10:46:03;;;;;;;;;;;20.20;1.00;;;;;;4947280;28;19933;-65
2023/09/25 10:48:31;;;;;;;;;;;20.30;1.00;;;;;;4954222;28;20021;-65
2023/09/25 10:50:58;;;;;;;;;;;20.30;1.00;;;;;;4958008;29;19977;-65
2023/09/25 10:53:26;;;;;;;;;;;20.30;1.00;;;;;;4958044;29;19926;-66
2023/09/25 10:55:53;;;;;;;;;;;20.30;1.00;;;;;;5007587;23;20407;-64
2023/09/25 10:58:21;;;;;;;;;;;20.30;1.00;;;;;;4957920;29;20021;-65
2023/09/25 11:00:49;;;;;;;;;;;20.30;1.00;;;;;;4957759;29;19961;-65
2023/09/25 11:03:17;;;;;;;;;;;20.30;1.00;;;;;;4957801;29;19926;-65
2023/09/25 11:05:44;;;;;;;;;;;20.30;1.00;;;;;;4957694;28;20431;-65
2023/09/25 11:08:15;;;;;;;;;;;20.30;1.00;;;;;;4957535;29;19966;-65
2023/09/25 11:10:42;;;;;;;;;;;20.30;1.00;;;;;;4957443;29;19939;-65
2023/09/25 11:13:10;;;;;;;;;;;20.30;1.00;;;;;;4957583;29;20396;-65
2023/09/25 11:15:37;;;;;;;;;;;20.30;1.00;;;;;;4957306;28;19932;-65
2023/09/25 11:18:08;;;;;;;;;;;20.30;1.00;;;;;;4957374;29;19926;-65
2023/09/25 11:20:37;;;;;;;;;;;20.30;1.00;;;;;;4957543;29;20341;-65
2023/09/25 11:23:09;;;;;;;;;;;20.30;1.00;;;;;;4957526;29;19934;-65
2023/09/25 11:25:47;;;;;;;;;;;20.30;1.00;;;;;;5095668;23;19926;-66
2023/09/25 11:28:16;;;;;;;;;;;20.30;1.00;;;;;;4976713;28;19981;-66
2023/09/25 11:30:46;;;;;;;;;;;20.30;1.00;;;;;;4976435;28;19926;-66
2023/09/25 11:33:18;;;;;;;;;;;20.30;1.00;;;;;;4976589;28;19927;-65
2023/09/25 11:35:47;;;;;;;;;;;20.30;1.00;;;;;;4976238;28;20447;-66
2023/09/25 11:38:20;;;;;;;;;;;20.30;1.00;;;;;;4976618;28;20026;-66
2023/09/25 11:40:49;;;;;;;;;;;20.30;1.00;;;;;;4976360;28;19927;-65
2023/09/25 11:43:17;;;;;;;;;;;20.30;1.00;;;;;;4976575;28;19926;-66
2023/09/25 11:45:43;;;;;;;;;;;20.30;1.00;;;;;;4976131;28;19934;-66
2023/09/25 11:48:11;;;;;;;;;;;20.30;1.00;;;;;;4976331;28;19927;-66
2023/09/25 11:50:39;;;;;;;;;;;20.40;1.00;;;;;;4976385;28;19969;-66
2023/09/25 11:53:06;;;;;;;;;;;20.40;1.00;;;;;;4959123;28;19934;-66
2023/09/25 11:55:33;;;;;;;;;;;20.40;1.00;;;;;;5016834;23;19961;-66
2023/09/25 11:58:00;;;;;;;;;;;20.40;1.00;;;;;;4949112;29;19927;-65
2023/09/25 12:00:30;;;;;;;;;;;20.40;1.00;;;;;;4956549;28;19982;-66
2023/09/25 12:02:57;;;;;;;;;;;20.40;1.00;;;;;;4956709;29;20479;-65
2023/09/25 12:05:25;;;;;;;;;;;20.40;1.00;;;;;;4956468;28;20393;-66
2023/09/25 12:07:52;;;;;;;;;;;20.40;1.00;;;;;;4956527;29;20265;-65
2023/09/25 12:10:19;;;;;;;;;;;20.40;1.00;;;;;;4956579;29;20052;-66
2023/09/25 12:12:47;;;;;;;;;;;20.40;1.00;;;;;;4956513;29;19926;-66
2023/09/25 12:15:15;;;;;;;;;;;20.40;1.00;;;;;;4955458;29;20022;-65
2023/09/25 12:17:43;;;;;;;;;;;20.40;1.00;;;;;;4956087;29;19931;-65
2023/09/25 12:20:16;;;;;;;;;;;20.40;1.00;;;;;;4956377;29;19930;-65
2023/09/25 12:22:46;;;;;;;;;;;20.40;1.00;;;;;;4956263;29;19930;-65
2023/09/25 12:25:13;;;;;;;;;;;20.40;1.00;;;;;;4956381;29;20397;-65
2023/09/25 12:27:41;;;;;;;;;;;20.40;1.00;;;;;;5318541;23;19937;-65
2023/09/25 12:30:10;;;;;;;;;;;20.40;1.00;;;;;;4994662;28;20430;-65
2023/09/25 12:32:37;;;;;;;;;;;20.40;1.00;;;;;;4994953;28;20356;-64
2023/09/25 12:35:05;;;;;;;;;;;20.40;1.00;;;;;;4994761;28;20388;-64
2023/09/25 12:37:32;;;;;;;;;;;20.40;1.00;;;;;;4976022;28;19933;-64
2023/09/25 12:39:59;;;;;;;;;;;20.40;1.00;;;;;;4975109;28;19932;-65
2023/09/25 12:42:26;;;;;;;;;;;20.40;1.00;;;;;;4975389;28;19985;-65
2023/09/25 12:45:09;;;;;;;;;;;20.40;1.00;;;;;;4975165;28;20412;-64
2023/09/25 12:47:36;;;;;;;;;;;20.40;1.00;;;;;;4975140;28;19946;-65
2023/09/25 12:50:03;;;;;;;;;;;20.40;1.00;;;;;;4975176;28;19926;-65
2023/09/25 12:52:31;;;;;;;;;;;20.40;1.00;;;;;;4975005;28;19926;-65
2023/09/25 12:54:58;;;;;;;;;;;20.40;1.00;;;;;;4974885;28;19926;-65
2023/09/25 12:57:25;;;;;;;;;;;20.40;1.00;;;;;;4974963;28;20016;-65
2023/09/25 12:59:52;;;;;;;;;;;20.40;1.00;;;;;;5111965;23;19926;-64
2023/09/25 13:02:19;;;;;;;;;;;20.40;1.00;;;;;;4994489;28;19926;-64
2023/09/25 13:04:48;;;;;;;;;;;20.40;1.00;;;;;;4994079;28;20270;-64
2023/09/25 13:07:15;;;;;;;;;;;20.40;1.00;;;;;;4977900;28;19926;-64
2023/09/25 13:09:42;;;;;;;;;;;20.40;1.00;;;;;;4958735;28;19931;-64
2023/09/25 13:12:09;;;;;;;;;;;20.40;1.00;;;;;;4974401;28;19932;-64
2023/09/25 13:14:36;;;;;;;;;;;20.40;1.00;;;;;;4974792;28;20367;-64
2023/09/25 13:17:03;;;;;;;;;;;20.40;1.00;;;;;;4974145;28;19926;-64
2023/09/25 13:19:30;;;;;;;;;;;20.40;1.00;;;;;;4974645;28;19930;-64
2023/09/25 13:21:58;;;;;;;;;;;20.40;1.00;;;;;;4974538;28;19969;-64
2023/09/25 13:24:26;;;;;;;;;;;20.40;1.00;;;;;;4974494;28;19927;-64
2023/09/25 13:26:53;;;;;;;;;;;20.40;1.00;;;;;;4974245;28;20427;-64
2023/09/25 13:29:20;;;;;;;;;;;20.40;1.00;;;;;;4971356;28;19969;-64
2023/09/25 13:31:47;;;;;;;;;;;20.40;1.00;;;;;;4971628;28;19960;-64
2023/09/25 13:34:13;;;;;;;;;;;20.40;1.00;;;;;;4974638;28;19926;-64
2023/09/25 13:36:40;;;;;;;;;;;20.40;1.00;;;;;;4973985;28;19926;-64
2023/09/25 13:39:07;;;;;;;;;;;20.40;1.00;;;;;;4974278;28;20009;-64
2023/09/25 13:41:34;;;;;;;;;;;20.50;1.00;;;;;;4974274;28;20024;-65
2023/09/25 13:44:01;;;;;;;;;;;20.50;1.00;;;;;;4974186;28;19926;-64
2023/09/25 13:46:27;;;;;;;;;;;20.50;1.00;;;;;;4973952;28;19960;-64
2023/09/25 13:48:54;;;;;;;;;;;20.50;1.00;;;;;;4970535;28;19969;-64
2023/09/25 13:51:21;;;;;;;;;;;20.40;1.00;;;;;;4938846;28;19927;-64
2023/09/25 13:53:48;;;;;;;;;;;20.50;1.00;;;;;;4951477;28;19927;-64
2023/09/25 13:56:17;;;;;;;;;;;20.40;1.00;;;;;;4952466;28;19937;-64
2023/09/25 13:58:44;;;;;;;;;;;20.40;1.00;;;;;;4958543;28;19936;-64
2023/09/25 14:01:12;;;;;;;;;;;20.50;1.00;;;;;;5063686;23;20087;-64
2023/09/25 14:03:39;;;;;;;;;;;20.50;1.00;;;;;;4965769;28;19929;-64
2023/09/25 14:06:07;;;;;;;;;;;20.50;1.00;;;;;;4954611;28;20031;-64
2023/09/25 14:08:35;;;;;;;;;;;20.50;1.00;;;;;;4954442;29;19937;-64
2023/09/25 14:11:02;;;;;;;;;;;20.50;1.00;;;;;;4954274;29;19933;-64
2023/09/25 14:13:29;;;;;;;;;;;20.50;1.00;;;;;;4954464;29;19926;-64
2023/09/25 14:15:56;;;;;;;;;;;20.40;1.00;;;;;;4953998;29;19974;-64
2023/09/25 14:18:24;;;;;;;;;;;20.50;1.00;;;;;;4954405;29;19930;-64
2023/09/25 14:20:50;;;;;;;;;;;20.50;1.00;;;;;;4953916;29;20392;-64
2023/09/25 14:23:17;;;;;;;;;;;20.50;1.00;;;;;;4953666;28;20383;-64
2023/09/25 14:25:44;;;;;;;;;;;20.50;1.00;;;;;;4946201;29;20025;-64
2023/09/25 14:28:11;;;;;;;;;;;20.50;1.00;;;;;;4950740;29;19927;-64
2023/09/25 14:33:34;;;;;;;;;;;20.50;1.00;;;;;;5228956;23;20114;-64
2023/09/25 14:36:01;;;;;;;;;;;20.50;1.00;;;;;;4937664;29;19927;-64
2023/09/25 14:38:28;;;;;;;;;;;20.50;1.00;;;;;;4932203;29;20021;-64
2023/09/25 14:40:55;;;;;;;;;;;20.60;1.00;;;;;;4931488;29;20372;-64
2023/09/25 14:43:22;;;;;;;;;;;20.60;1.00;;;;;;4933500;29;19982;-65
2023/09/25 14:45:49;;;;;;;;;;;20.60;1.00;;;;;;4929009;29;19942;-65
2023/09/25 14:48:16;;;;;;;;;;;20.60;1.00;;;;;;4922388;29;19931;-65
2023/09/25 14:50:44;;;;;;;;;;;20.60;1.00;;;;;;4925531;29;19927;-65
2023/09/25 14:53:11;;;;;;;;;;;20.60;1.00;;;;;;4937657;29;19926;-65
2023/09/25 14:55:38;;;;;;;;;;;20.60;1.00;;;;;;4953737;28;20339;-65
2023/09/25 14:58:22;;;;;;;;;;;20.60;1.00;;;;;;4954015;29;19926;-65